Time;durP1;ratioP1;P1;durP2;ratioP2;P2;SDS_P1;SDS_P2;PMS_P1;PMS_P2;Temp;Humidity;BMP_temperature;BMP_pressure;BME280_temperature;BME280_humidity;BME280_pressure;Samples;Min_cycle;Max_cycle;Signal;HPM_P1;HPM_P2
2023/07/07 00:01:15;;;;;;;23.02;9.40;;;;;;;18.69;66.98;101778.72;5113964;28;20052;-64
2023/07/07 00:03:43;;;;;;;18.40;8.77;;;;;;;18.66;66.92;101774.59;5112595;28;20059;-65
2023/07/07 00:06:11;;;;;;;20.05;9.10;;;;;;;18.64;66.87;101782.38;5113972;28;20055;-64
2023/07/07 00:08:39;;;;;;;21.08;9.15;;;;;;;18.64;66.80;101782.38;5082454;28;20054;-62
2023/07/07 00:11:07;;;;;;;16.05;8.57;;;;;;;18.63;66.53;101780.72;5115556;28;20058;-63
2023/07/07 00:13:35;;;;;;;18.42;8.57;;;;;;;18.63;66.57;101782.66;5115847;28;20046;-63
2023/07/07 00:16:04;;;;;;;15.32;7.90;;;;;;;18.62;66.34;101776.31;5113167;28;20062;-63
2023/07/07 00:18:32;;;;;;;14.60;7.32;;;;;;;18.62;66.29;101781.03;5114228;28;20043;-63
2023/07/07 00:21:01;;;;;;;13.43;7.78;;;;;;;18.59;66.30;101782.44;5115879;28;20043;-63
2023/07/07 00:23:29;;;;;;;14.93;7.93;;;;;;;18.59;66.30;101784.38;5115325;28;20047;-63
2023/07/07 00:26:05;;;;;;;14.07;6.95;;;;;;;18.57;66.28;101787.44;5115890;28;20051;-64
2023/07/07 00:28:34;;;;;;;14.50;7.50;;;;;;;18.55;66.35;101783.34;5115910;28;20062;-63
2023/07/07 00:31:02;;;;;;;14.55;6.70;;;;;;;18.54;66.06;101788.03;5115958;28;20062;-63
2023/07/07 00:33:31;;;;;;;16.77;6.35;;;;;;;18.54;65.77;101782.50;5115442;28;20397;-64
2023/07/07 00:35:59;;;;;;;14.82;6.70;;;;;;;18.52;65.69;101790.28;5116737;28;20515;-63
2023/07/07 00:38:26;;;;;;;13.13;6.03;;;;;;;18.51;66.15;101785.88;5112482;28;20039;-64
2023/07/07 00:40:54;;;;;;;15.27;6.28;;;;;;;18.51;66.15;101780.34;5115385;28;20048;-64
2023/07/07 00:43:22;;;;;;;11.48;6.13;;;;;;;18.49;66.45;101782.56;5119146;28;20555;-64
2023/07/07 00:45:50;;;;;;;15.30;6.25;;;;;;;18.47;66.69;101782.06;5102503;28;20050;-64
2023/07/07 00:48:28;;;;;;;16.63;6.45;;;;;;;18.45;66.79;101789.84;5116049;28;20377;-62
2023/07/07 00:51:02;;;;;;;13.00;6.07;;;;;;;18.42;66.72;101791.22;5120269;28;20119;-64
2023/07/07 00:53:30;;;;;;;13.75;5.47;;;;;;;18.40;66.86;101787.13;5120723;28;20058;-63
2023/07/07 00:56:06;;;;;;;10.93;5.65;;;;;;;18.38;67.10;101783.88;5116659;28;20055;-62
2023/07/07 00:58:37;;;;;;;9.88;5.53;;;;;;;18.37;66.93;101787.72;5097570;28;20056;-63
2023/07/07 01:01:12;;;;;;;16.48;5.57;;;;;;;18.35;67.04;101782.53;5098556;28;20060;-63
2023/07/07 01:03:46;;;;;;;9.68;5.28;;;;;;;18.34;67.03;101788.31;5115355;28;20043;-62
2023/07/07 01:06:16;;;;;;;11.82;5.72;;;;;;;18.34;67.13;101782.81;5097873;28;20051;-63
2023/07/07 01:08:45;;;;;;;11.80;5.70;;;;;;;18.33;67.32;101786.66;5114129;28;20058;-64
2023/07/07 01:11:17;;;;;;;10.82;5.97;;;;;;;18.31;67.20;101790.56;5114288;28;20048;-63
2023/07/07 01:13:44;;;;;;;11.82;5.82;;;;;;;18.28;67.31;101793.91;5098224;28;20058;-63
2023/07/07 01:16:20;;;;;;;13.50;5.50;;;;;;;18.24;67.51;101790.09;5115866;28;20096;-62
2023/07/07 01:18:57;;;;;;;9.38;5.25;;;;;;;18.25;67.61;101793.66;5116164;28;20047;-63
2023/07/07 01:21:43;;;;;;;11.90;5.45;;;;;;;18.23;67.86;101794.00;5115355;28;20043;-63
2023/07/07 01:24:38;;;;;;;10.68;5.32;;;;;;;18.22;67.73;101795.09;5097543;28;20047;-64
2023/07/07 01:27:28;;;;;;;12.63;5.47;;;;;;;18.20;67.81;101789.03;5098139;28;20042;-64
2023/07/07 01:30:15;;;;;;;12.15;6.03;;;;;;;18.15;67.73;101791.88;5119737;28;20099;-63
2023/07/07 01:32:43;;;;;;;10.35;5.75;;;;;;;18.09;68.22;101793.06;5087597;28;20056;-63
2023/07/07 01:35:14;;;;;;;9.50;5.50;;;;;;;18.00;68.84;101797.59;5118430;28;20055;-62
2023/07/07 01:37:56;;;;;;;10.60;5.63;;;;;;;17.95;69.14;101794.91;5127916;28;20096;-63
2023/07/07 01:40:41;;;;;;;12.40;5.40;;;;;;;17.90;68.85;101793.03;5131694;28;20082;-63
2023/07/07 01:43:32;;;;;;;16.20;6.03;;;;;;;17.84;69.43;101792.22;5131216;28;20074;-65
2023/07/07 01:46:05;;;;;;;9.82;5.50;;;;;;;17.80;69.91;101796.72;5116744;28;20062;-61
2023/07/07 01:48:55;;;;;;;10.50;5.30;;;;;;;17.80;69.87;101788.44;5123175;28;20051;-62
2023/07/07 01:51:27;;;;;;;9.57;5.43;;;;;;;17.84;69.61;101792.22;5114931;28;20097;-62
2023/07/07 01:53:56;;;;;;;12.00;5.50;;;;;;;17.82;69.25;101779.84;5118326;28;20407;-63
2023/07/07 01:56:26;;;;;;;11.20;5.50;;;;;;;17.77;69.66;101788.97;5114685;28;20506;-64
2023/07/07 01:58:54;;;;;;;9.15;5.25;;;;;;;17.72;70.40;101783.53;5097098;28;20050;-63
2023/07/07 02:01:22;;;;;;;10.85;5.60;;;;;;;17.68;70.55;101785.25;5114288;28;20521;-64
2023/07/07 02:03:50;;;;;;;10.18;5.13;;;;;;;17.66;70.89;101790.22;5112573;28;20051;-64
2023/07/07 02:06:18;;;;;;;10.85;5.65;;;;;;;17.63;71.00;101779.75;5113888;28;20044;-64
2023/07/07 02:08:46;;;;;;;12.63;5.60;;;;;;;17.57;71.19;101781.75;5115073;28;20061;-64
2023/07/07 02:11:14;;;;;;;11.48;5.30;;;;;;;17.55;71.58;101788.69;5114413;28;20048;-64
2023/07/07 02:13:43;;;;;;;11.18;5.88;;;;;;;17.52;71.61;101783.75;5115768;28;20042;-64
2023/07/07 02:16:11;;;;;;;10.68;5.40;;;;;;;17.45;71.63;101784.09;5114061;28;20047;-64
2023/07/07 02:18:41;;;;;;;9.80;4.97;;;;;;;17.38;71.95;101783.63;5095599;28;20051;-64
2023/07/07 02:21:09;;;;;;;13.52;5.38;;;;;;;17.31;72.14;101788.63;5096843;28;20437;-64
2023/07/07 02:23:37;;;;;;;13.60;5.57;;;;;;;17.27;72.16;101790.31;5113484;28;20062;-64
2023/07/07 02:26:05;;;;;;;12.82;5.85;;;;;;;17.23;72.91;101781.84;5075958;28;20060;-64
2023/07/07 02:28:33;;;;;;;13.13;5.53;;;;;;;17.20;72.86;101785.19;5093897;28;20048;-63
2023/07/07 02:31:00;;;;;;;11.48;5.30;;;;;;;17.16;73.07;101784.09;5110823;28;20040;-63
2023/07/07 02:33:32;;;;;;;10.32;4.75;;;;;;;17.12;73.28;101785.78;5096692;28;20051;-64
2023/07/07 02:36:05;;;;;;;8.90;4.70;;;;;;;17.09;73.17;101787.19;5100654;28;20055;-65
2023/07/07 02:38:35;;;;;;;9.93;5.10;;;;;;;17.09;73.37;101780.84;5113623;28;20384;-64
2023/07/07 02:41:02;;;;;;;12.35;5.18;;;;;;;17.08;73.47;101790.22;5097235;28;20069;-62
2023/07/07 02:43:31;;;;;;;12.85;5.40;;;;;;;17.07;73.78;101788.56;5112449;28;20047;-65
2023/07/07 02:46:00;;;;;;;11.27;4.82;;;;;;;17.11;73.76;101789.66;5115091;28;20047;-64
2023/07/07 02:48:28;;;;;;;8.55;5.00;;;;;;;17.15;73.44;101793.44;5113073;28;20047;-65
2023/07/07 02:51:04;;;;;;;8.90;4.85;;;;;;;17.19;73.03;101786.25;5096783;28;20036;-63
2023/07/07 02:53:34;;;;;;;11.27;4.80;;;;;;;17.19;72.80;101797.28;5079764;28;20047;-63
2023/07/07 02:56:03;;;;;;;9.48;5.22;;;;;;;17.11;73.28;101797.91;5110119;28;20051;-64
2023/07/07 02:58:31;;;;;;;10.98;5.28;;;;;;;16.99;73.93;101799.09;5110376;28;20045;-65
2023/07/07 03:01:09;;;;;;;11.32;5.50;;;;;;;16.94;74.15;101801.91;5076775;28;20048;-63
2023/07/07 03:03:39;;;;;;;10.40;5.18;;;;;;;16.88;74.68;101814.03;5103907;28;20046;-64
2023/07/07 03:06:09;;;;;;;9.43;4.72;;;;;;;16.83;74.94;101809.38;5109973;28;20058;-63
2023/07/07 03:08:37;;;;;;;10.10;5.28;;;;;;;16.83;75.33;101814.91;5095751;28;20054;-63
2023/07/07 03:11:07;;;;;;;9.02;5.00;;;;;;;16.82;75.42;101809.69;5096764;28;20051;-63
2023/07/07 03:13:38;;;;;;;9.65;5.68;;;;;;;16.82;75.13;101815.19;5111326;28;20044;-64
2023/07/07 03:16:11;;;;;;;12.93;5.50;;;;;;;16.81;75.50;101808.03;5079545;28;20061;-63
2023/07/07 03:18:44;;;;;;;11.90;5.22;;;;;;;16.86;75.42;101802.53;5112663;28;20069;-64
2023/07/07 03:21:12;;;;;;;11.25;4.95;;;;;;;16.90;74.88;101816.50;5114379;28;20058;-63
2023/07/07 03:23:39;;;;;;;9.40;5.10;;;;;;;16.93;74.59;101807.69;5112792;28;20040;-63
2023/07/07 03:26:10;;;;;;;8.82;5.10;;;;;;;16.87;74.00;101811.59;5094848;28;20055;-63
2023/07/07 03:28:39;;;;;;;9.48;5.57;;;;;;;16.81;74.90;101808.88;5075509;28;20055;-63
2023/07/07 03:31:25;;;;;;;13.35;5.55;;;;;;;16.77;75.32;101812.47;5093069;28;20056;-63
2023/07/07 03:33:59;;;;;;;11.13;5.03;;;;;;;16.74;75.20;101815.75;5079304;28;20062;-63
2023/07/07 03:36:32;;;;;;;11.32;5.00;;;;;;;16.71;75.33;101819.09;5076874;28;20052;-62
2023/07/07 03:39:01;;;;;;;12.50;5.50;;;;;;;16.69;75.35;101818.53;5105019;28;20059;-64
2023/07/07 03:41:30;;;;;;;10.18;5.07;;;;;;;16.64;75.67;101818.56;5116150;28;20039;-64
2023/07/07 03:44:00;;;;;;;10.00;5.43;;;;;;;16.61;76.41;101814.47;5120519;28;20043;-63
2023/07/07 03:46:31;;;;;;;10.65;5.65;;;;;;;16.56;76.36;101818.06;5086971;28;20126;-63
2023/07/07 03:48:59;;;;;;;12.32;5.10;;;;;;;16.48;76.72;101815.94;5121461;28;20119;-64
2023/07/07 03:51:34;;;;;;;13.35;5.50;;;;;;;16.44;77.44;101814.03;5104313;28;20103;-63
2023/07/07 03:54:05;;;;;;;13.80;5.60;;;;;;;16.44;77.28;101819.53;5121892;28;20069;-63
2023/07/07 03:56:36;;;;;;;9.60;5.07;;;;;;;16.39;77.58;101817.63;5103626;28;20122;-63
2023/07/07 03:59:04;;;;;;;9.52;5.05;;;;;;;16.41;77.65;101818.16;5118781;28;20035;-63
2023/07/07 04:01:32;;;;;;;8.88;4.95;;;;;;;16.40;77.63;101813.75;5060060;28;20052;-63
2023/07/07 04:04:00;;;;;;;10.80;5.38;;;;;;;16.41;77.18;101820.91;5074017;28;20041;-63
2023/07/07 04:06:29;;;;;;;11.63;5.53;;;;;;;16.47;77.53;101822.53;5076967;28;20104;-62
2023/07/07 04:08:57;;;;;;;11.95;5.47;;;;;;;16.52;76.74;101816.97;5077498;28;20413;-62
2023/07/07 04:11:25;;;;;;;9.75;5.30;;;;;;;16.53;77.07;101807.63;5076868;28;20417;-63
2023/07/07 04:13:53;;;;;;;10.25;5.05;;;;;;;16.51;76.75;101803.53;5093331;28;20397;-64
2023/07/07 04:16:23;;;;;;;11.32;5.45;;;;;;;16.52;77.14;101822.47;5092005;28;20562;-62
2023/07/07 04:18:53;;;;;;;11.40;5.18;;;;;;;16.54;76.79;101831.28;5093576;28;20401;-62
2023/07/07 04:21:23;;;;;;;9.82;4.57;;;;;;;16.54;77.02;101825.78;5059350;28;20056;-65
2023/07/07 04:23:53;;;;;;;9.50;5.15;;;;;;;16.55;77.09;101826.63;5057923;28;20446;-63
2023/07/07 04:26:21;;;;;;;15.93;5.78;;;;;;;16.56;77.14;101823.56;5075330;28;20044;-63
2023/07/07 04:28:51;;;;;;;12.82;5.15;;;;;;;16.56;77.26;101826.31;5074836;28;20048;-61
2023/07/07 04:31:20;;;;;;;9.90;5.10;;;;;;;16.58;77.21;101837.06;5074769;28;20048;-62
2023/07/07 04:33:48;;;;;;;9.30;4.88;;;;;;;16.65;77.36;101837.56;5076305;28;20492;-63
2023/07/07 04:36:16;;;;;;;10.18;5.28;;;;;;;16.70;77.05;101834.78;5076222;28;20044;-65
2023/07/07 04:38:44;;;;;;;11.70;5.50;;;;;;;16.76;76.77;101835.56;5077046;28;20142;-64
2023/07/07 04:41:26;;;;;;;11.77;5.50;;;;;;;16.80;76.10;101831.19;5057470;28;20048;-64
2023/07/07 04:43:56;;;;;;;10.32;5.40;;;;;;;16.83;76.56;101838.84;5076373;28;20052;-63
2023/07/07 04:46:30;;;;;;;13.02;6.03;;;;;;;16.85;76.24;101839.41;5076351;28;20059;-64
2023/07/07 04:48:59;;;;;;;13.88;5.65;;;;;;;16.89;74.85;101834.97;5076561;28;20545;-63
2023/07/07 04:51:27;;;;;;;10.63;5.28;;;;;;;16.94;74.51;101829.44;5074490;28;20036;-63
2023/07/07 04:53:55;;;;;;;10.13;5.40;;;;;;;16.99;74.11;101832.13;5070693;28;20041;-63
2023/07/07 04:56:23;;;;;;;10.60;5.88;;;;;;;17.03;73.70;101822.19;5072374;28;20492;-62
2023/07/07 04:58:52;;;;;;;11.52;5.82;;;;;;;17.07;73.60;101824.38;5081405;28;20124;-64
2023/07/07 05:01:23;;;;;;;10.95;5.18;;;;;;;17.10;73.14;101821.03;5096785;28;20059;-65
2023/07/07 05:03:56;;;;;;;13.20;5.38;;;;;;;17.14;72.48;101824.88;5116345;28;20047;-63
2023/07/07 05:06:26;;;;;;;8.60;5.00;;;;;;;17.19;72.00;101822.06;5113142;28;20039;-62
2023/07/07 05:08:54;;;;;;;10.18;5.28;;;;;;;17.22;71.64;101821.47;5079533;28;20089;-62
2023/07/07 05:11:24;;;;;;;9.48;4.72;;;;;;;17.23;71.01;101825.91;5111517;28;20042;-65
2023/07/07 05:13:53;;;;;;;10.57;5.78;;;;;;;17.27;71.23;101826.97;5102971;28;20059;-65
2023/07/07 05:16:23;;;;;;;12.40;5.85;;;;;;;17.31;70.22;101827.22;5115962;28;20050;-63
2023/07/07 05:18:52;;;;;;;9.63;4.72;;;;;;;17.32;70.14;101818.66;5115999;28;20043;-64
2023/07/07 05:21:22;;;;;;;11.38;5.50;;;;;;;17.34;69.81;101824.72;5113861;28;20047;-63
2023/07/07 05:23:52;;;;;;;8.77;4.60;;;;;;;17.36;69.68;101835.41;4758995;28;10000399;-64
2023/07/07 05:26:27;;;;;;;15.02;5.40;;;;;;;17.37;69.85;101837.91;5111171;28;20051;-62
2023/07/07 05:29:00;;;;;;;9.65;4.68;;;;;;;17.41;69.85;101841.72;5094576;28;20055;-65
2023/07/07 05:31:28;;;;;;;9.93;4.90;;;;;;;17.44;69.33;101838.38;5094144;28;20043;-63
2023/07/07 05:33:57;;;;;;;9.32;4.72;;;;;;;17.50;69.77;101838.34;5112165;28;20057;-64
2023/07/07 05:36:25;;;;;;;11.80;5.47;;;;;;;17.52;69.56;101838.88;5110799;28;20372;-65
2023/07/07 05:38:53;;;;;;;9.48;4.88;;;;;;;17.55;69.59;101838.28;5094380;28;20203;-66
2023/07/07 05:41:21;;;;;;;9.90;4.13;;;;;;;17.58;69.92;101832.19;5101840;28;20415;-63
2023/07/07 05:43:49;;;;;;;8.75;4.35;;;;;;;17.60;69.59;101841.00;5130143;27;20047;-64
2023/07/07 05:46:17;;;;;;;8.75;4.53;;;;;;;17.62;69.41;101838.75;5110691;28;20050;-64
2023/07/07 05:48:46;;;;;;;9.77;4.85;;;;;;;17.67;69.44;101844.22;5112376;28;20047;-64
2023/07/07 05:51:16;;;;;;;12.20;4.93;;;;;;;17.73;69.55;101845.81;5114327;28;20059;-65
2023/07/07 05:53:44;;;;;;;11.25;5.20;;;;;;;17.77;68.65;101840.53;5120448;28;20062;-63
2023/07/07 05:56:22;;;;;;;13.95;4.90;;;;;;;17.84;67.33;101841.03;5131308;28;20092;-64
2023/07/07 05:58:52;;;;;;;11.85;5.70;;;;;;;17.88;66.51;101840.16;5106183;28;20051;-65
2023/07/07 06:01:20;;;;;;;8.57;5.13;;;;;;;17.90;67.15;101833.56;5114756;28;20380;-64
2023/07/07 06:03:47;;;;;;;7.72;4.43;;;;;;;17.92;67.15;101842.34;5099523;28;20048;-64
2023/07/07 06:06:15;;;;;;;10.10;4.68;;;;;;;17.95;67.46;101841.78;5129295;28;20051;-63
2023/07/07 06:08:43;;;;;;;9.60;4.65;;;;;;;18.00;67.90;101838.94;5128404;28;20109;-62
2023/07/07 06:11:11;;;;;;;9.55;4.68;;;;;;;18.08;67.13;101836.34;5115546;28;20035;-63
2023/07/07 06:13:39;;;;;;;11.93;5.35;;;;;;;18.12;66.27;101835.78;5111016;28;20080;-63
2023/07/07 06:16:07;;;;;;;11.52;5.95;;;;;;;18.10;65.90;101836.06;5110772;28;20044;-64
2023/07/07 06:18:35;;;;;;;12.57;6.10;;;;;;;18.16;65.73;101843.19;5113851;28;20058;-64
2023/07/07 06:21:03;;;;;;;10.88;4.70;;;;;;;18.17;66.08;101844.81;5113314;28;20054;-64
2023/07/07 06:23:32;;;;;;;13.45;5.43;;;;;;;18.20;66.15;101835.13;5096018;28;20040;-65
2023/07/07 06:26:01;;;;;;;10.65;5.05;;;;;;;18.21;65.85;101837.59;5094743;28;20047;-63
2023/07/07 06:28:29;;;;;;;10.50;4.40;;;;;;;18.24;66.45;101844.47;5093660;28;20504;-64
2023/07/07 06:30:57;;;;;;;9.80;5.80;;;;;;;18.23;66.71;101840.03;5106339;28;20044;-64
2023/07/07 06:33:25;;;;;;;10.00;5.30;;;;;;;18.26;66.90;101843.03;5114602;28;20043;-64
2023/07/07 06:35:53;;;;;;;27.33;7.75;;;;;;;18.29;67.16;101834.16;5078002;28;20043;-64
2023/07/07 06:38:21;;;;;;;32.17;9.63;;;;;;;18.38;67.27;101841.81;5099150;28;20040;-65
2023/07/07 06:40:49;;;;;;;29.60;9.13;;;;;;;18.36;66.92;101842.09;5079966;28;20051;-64
2023/07/07 06:43:18;;;;;;;39.92;10.98;;;;;;;18.40;67.64;101843.16;5113728;28;20108;-64
2023/07/07 06:45:53;;;;;;;36.25;11.85;;;;;;;18.41;67.54;101846.72;5113512;28;20398;-66
2023/07/07 06:48:20;;;;;;;14.52;6.28;;;;;;;18.42;67.46;101843.66;5076614;28;20042;-65
2023/07/07 06:50:48;;;;;;;16.15;6.65;;;;;;;18.47;67.06;101845.53;5114921;28;20040;-65
2023/07/07 06:53:16;;;;;;;15.75;6.53;;;;;;;18.57;66.81;101845.41;5116561;28;20139;-65
2023/07/07 06:55:44;;;;;;;18.52;6.15;;;;;;;18.66;65.51;101849.13;5114074;28;20054;-64
2023/07/07 06:58:14;;;;;;;13.57;6.03;;;;;;;18.72;66.02;101839.66;5107811;28;20069;-64
2023/07/07 07:00:43;;;;;;;15.23;5.82;;;;;;;18.78;65.81;101848.72;5117350;28;20059;-64
2023/07/07 07:03:12;;;;;;;12.85;5.40;;;;;;;18.78;64.99;101845.13;5114860;28;20040;-64
2023/07/07 07:05:40;;;;;;;12.98;5.20;;;;;;;18.78;64.89;101845.13;5113592;28;20051;-63
2023/07/07 07:08:08;;;;;;;14.07;5.88;;;;;;;18.85;63.95;101846.41;5112554;28;20052;-64
2023/07/07 07:10:36;;;;;;;10.27;4.63;;;;;;;18.91;63.53;101853.50;5096162;28;20111;-64
2023/07/07 07:13:04;;;;;;;19.30;4.93;;;;;;;19.05;62.40;101853.56;5111164;28;20043;-65
2023/07/07 07:15:32;;;;;;;9.55;4.95;;;;;;;19.02;62.22;101856.91;5090020;28;20086;-66
2023/07/07 07:18:00;;;;;;;9.23;4.43;;;;;;;18.99;62.45;101859.47;5109574;28;20048;-63
2023/07/07 07:20:28;;;;;;;7.95;4.32;;;;;;;19.00;62.29;101850.06;5113763;28;20040;-64
2023/07/07 07:22:55;;;;;;;11.85;4.80;;;;;;;19.01;61.97;101858.03;5118800;28;20491;-65
2023/07/07 07:25:23;;;;;;;8.93;4.30;;;;;;;19.12;60.52;101861.47;5118227;28;20057;-64
2023/07/07 07:27:51;;;;;;;9.95;4.22;;;;;;;19.11;61.06;101857.88;5119202;28;20058;-65
2023/07/07 07:30:19;;;;;;;7.35;3.97;;;;;;;19.11;60.74;101863.41;5107756;27;20051;-66
2023/07/07 07:32:46;;;;;;;11.13;5.00;;;;;;;19.12;60.20;101859.53;5118369;28;20081;-64
2023/07/07 07:35:15;;;;;;;8.98;4.30;;;;;;;19.14;60.96;101867.50;5117363;28;20394;-63
2023/07/07 07:37:43;;;;;;;9.35;4.80;;;;;;;19.18;61.16;101868.56;5118667;28;20054;-65
2023/07/07 07:40:11;;;;;;;11.07;5.25;;;;;;;19.21;61.75;101867.13;5118618;28;20065;-64
2023/07/07 07:42:38;;;;;;;9.20;4.28;;;;;;;19.24;62.16;101866.53;5116141;28;20042;-64
2023/07/07 07:45:08;;;;;;;8.48;4.13;;;;;;;19.29;62.92;101870.03;5117541;28;20044;-62
2023/07/07 07:47:36;;;;;;;10.30;4.80;;;;;;;19.33;63.11;101873.00;5117979;28;20048;-63
2023/07/07 07:50:05;;;;;;;10.13;4.55;;;;;;;19.33;63.66;101867.47;5117458;28;20400;-62
2023/07/07 07:52:33;;;;;;;12.13;4.85;;;;;;;19.34;64.58;101872.72;5096211;28;20048;-66
2023/07/07 07:55:00;;;;;;;13.40;5.20;;;;;;;19.39;65.35;101871.81;5112529;28;20364;-66
2023/07/07 07:57:28;;;;;;;10.18;4.97;;;;;;;19.56;63.66;101861.00;5115337;28;20396;-64
2023/07/07 07:59:56;;;;;;;12.90;5.45;;;;;;;19.64;63.17;101870.53;5115500;28;20068;-65
2023/07/07 08:02:24;;;;;;;12.65;5.85;;;;;;;19.64;63.97;101875.25;5115526;28;20066;-64
2023/07/07 08:04:52;;;;;;;11.27;6.18;;;;;;;19.67;63.87;101871.88;5114520;28;20048;-65
2023/07/07 08:07:20;;;;;;;10.25;5.50;;;;;;;19.72;64.19;101877.34;5114777;28;20110;-65
2023/07/07 08:09:48;;;;;;;9.75;4.70;;;;;;;19.71;64.02;101875.72;5115454;28;20488;-65
2023/07/07 08:12:16;;;;;;;11.57;5.00;;;;;;;19.72;64.77;101874.56;5088200;28;20044;-66
2023/07/07 08:14:44;;;;;;;13.02;5.18;;;;;;;19.74;65.29;101870.38;5111576;28;20492;-64
2023/07/07 08:17:13;;;;;;;11.93;5.32;;;;;;;19.84;64.71;101874.09;5105364;28;20396;-65
2023/07/07 08:19:42;;;;;;;11.30;5.50;;;;;;;19.85;64.26;101875.75;5078788;28;20503;-65
2023/07/07 08:22:15;;;;;;;13.40;5.30;;;;;;;19.84;64.66;101880.44;5070197;28;20096;-64
2023/07/07 08:24:47;;;;;;;8.35;4.50;;;;;;;19.84;65.06;101879.63;5113311;28;20062;-65
2023/07/07 08:27:16;;;;;;;12.18;6.18;;;;;;;19.87;65.77;101874.31;5096066;28;20042;-64
2023/07/07 08:29:47;;;;;;;12.30;5.60;;;;;;;20.03;64.79;101871.25;5089950;28;20048;-65
2023/07/07 08:32:18;;;;;;;9.70;5.20;;;;;;;20.12;64.77;101874.94;5095946;28;20050;-64
2023/07/07 08:34:46;;;;;;;11.20;5.50;;;;;;;20.29;64.36;101877.09;5109249;28;20040;-64
2023/07/07 08:37:25;;;;;;;7.90;4.65;;;;;;;20.32;63.78;101877.28;5117240;28;20039;-65
2023/07/07 08:39:53;;;;;;;11.02;5.32;;;;;;;20.33;63.70;101881.69;5096973;28;20100;-65
2023/07/07 08:42:36;;;;;;;11.02;5.38;;;;;;;20.41;62.92;101878.19;5096139;28;20052;-65
2023/07/07 08:45:13;;;;;;;8.48;4.20;;;;;;;20.45;62.76;101875.66;5114666;28;20036;-65
2023/07/07 08:48:19;;;;;;;6.90;4.18;;;;;;;20.46;62.68;101873.69;5096892;28;20062;-64
2023/07/07 08:50:54;;;;;;;9.93;5.10;;;;;;;20.51;61.57;101876.34;5110278;28;20047;-65
2023/07/07 08:53:37;;;;;;;7.50;4.63;;;;;;;20.51;60.38;101871.63;5104504;28;20055;-66
2023/07/07 08:56:22;;;;;;;9.73;4.65;;;;;;;20.54;60.90;101878.50;5106534;28;20533;-65
2023/07/07 08:59:05;;;;;;;9.52;4.45;;;;;;;20.68;59.98;101876.53;5099507;28;20400;-65
2023/07/07 09:01:48;;;;;;;9.07;4.28;;;;;;;20.72;58.17;101877.56;5102114;28;20048;-66
2023/07/07 09:04:28;;;;;;;9.43;4.18;;;;;;;20.72;57.23;101874.81;5109968;28;20039;-65
2023/07/07 09:07:05;;;;;;;5.85;3.10;;;;;;;20.72;56.36;101877.56;5112261;28;20070;-65
2023/07/07 09:09:44;;;;;;;8.98;3.40;;;;;;;20.72;56.74;101877.56;5099891;28;20040;-65
2023/07/07 09:12:18;;;;;;;7.03;3.85;;;;;;;20.84;55.31;101877.03;5112532;28;20046;-65
2023/07/07 09:14:48;;;;;;;10.15;3.70;;;;;;;20.95;54.70;101874.84;5085604;28;20044;-66
2023/07/07 09:17:21;;;;;;;10.00;3.40;;;;;;;20.99;53.39;101876.66;5089868;28;20039;-64
2023/07/07 09:19:51;;;;;;;8.18;3.15;;;;;;;21.02;51.19;101870.53;5099136;28;20063;-65
2023/07/07 09:22:22;;;;;;;6.93;3.45;;;;;;;21.04;49.91;101875.72;5112898;28;20047;-64
2023/07/07 09:25:05;;;;;;;7.40;3.20;;;;;;;21.04;49.76;101875.72;5116431;28;20047;-65
2023/07/07 09:27:38;;;;;;;6.28;2.83;;;;;;;21.10;49.85;101876.44;5114920;28;20043;-65
2023/07/07 09:30:12;;;;;;;7.88;2.85;;;;;;;21.16;51.02;101875.19;5114569;28;20043;-64
2023/07/07 09:32:39;;;;;;;6.55;3.30;;;;;;;21.22;51.17;101873.94;5114435;28;20050;-65
2023/07/07 09:35:13;;;;;;;6.75;3.33;;;;;;;21.28;51.58;101873.47;5114580;28;20044;-64
2023/07/07 09:37:54;;;;;;;7.07;2.85;;;;;;;21.32;48.55;101867.31;5080926;28;20051;-65
2023/07/07 09:40:28;;;;;;;8.63;3.13;;;;;;;21.35;49.95;101861.13;5114052;28;20403;-65
2023/07/07 09:43:26;;;;;;;9.82;3.80;;;;;;;21.31;50.67;101865.66;5108818;28;20065;-64
2023/07/07 09:46:04;;;;;;;6.75;3.35;;;;;;;21.34;51.63;101862.28;5079544;28;20415;-64
2023/07/07 09:49:09;;;;;;;7.13;3.38;;;;;;;21.44;51.59;101860.09;5096640;28;20416;-65
2023/07/07 09:51:41;;;;;;;10.07;3.60;;;;;;;21.53;51.16;101868.47;5112566;28;20047;-65
2023/07/07 09:54:11;;;;;;;8.45;3.60;;;;;;;21.58;51.56;101862.78;5101353;28;20047;-64
2023/07/07 09:56:52;;;;;;;7.93;3.25;;;;;;;21.58;51.67;101854.47;5080168;28;20051;-65
2023/07/07 09:59:26;;;;;;;10.13;3.58;;;;;;;21.59;51.98;101863.59;5102226;28;20113;-66
2023/07/07 10:01:57;;;;;;;5.80;3.03;;;;;;;21.62;52.13;101849.94;5120206;28;20128;-65
2023/07/07 10:05:03;;;;;;;6.80;3.25;;;;;;;21.64;54.53;101857.91;5098943;28;20040;-65
2023/07/07 10:07:43;;;;;;;7.80;3.42;;;;;;;21.69;51.77;101853.06;5114664;28;20115;-65
2023/07/07 10:10:13;;;;;;;7.25;3.40;;;;;;;21.74;51.67;101857.63;5093373;28;20051;-65
2023/07/07 10:12:42;;;;;;;6.70;3.40;;;;;;;21.75;51.53;101859.28;5106368;28;20122;-65
2023/07/07 10:15:34;;;;;;;8.00;3.50;;;;;;;21.74;50.95;101845.72;5116014;28;20087;-63
2023/07/07 10:18:16;;;;;;;7.75;3.60;;;;;;;21.80;50.33;101855.56;5107410;28;20062;-62
2023/07/07 10:20:44;;;;;;;11.30;4.10;;;;;;;22.01;49.46;101844.72;5110832;28;20076;-64
2023/07/07 10:23:13;;;;;;;9.65;4.13;;;;;;;22.12;48.99;101844.06;5082159;28;20043;-64
2023/07/07 10:25:42;;;;;;;11.00;3.50;;;;;;;22.26;49.00;101843.19;5140918;27;20118;-63
2023/07/07 10:28:15;;;;;;;6.72;3.58;;;;;;;22.43;47.72;101834.88;5130220;27;20052;-64
2023/07/07 10:30:45;;;;;;;7.72;3.47;;;;;;;22.46;47.16;101845.34;5096940;28;20071;-64
2023/07/07 10:33:18;;;;;;;7.90;3.55;;;;;;;22.50;47.02;101845.53;5117714;28;20058;-65
2023/07/07 10:35:47;;;;;;;6.38;3.63;;;;;;;22.44;46.98;101842.09;5114525;28;20092;-66
2023/07/07 10:38:15;;;;;;;12.98;3.65;;;;;;;22.43;46.28;101829.31;5115204;28;20044;-66
2023/07/07 10:40:45;;;;;;;8.73;3.55;;;;;;;22.53;45.72;101828.19;5096905;28;20039;-66
2023/07/07 10:43:14;;;;;;;8.60;3.72;;;;;;;22.59;46.82;101826.09;5114273;28;20504;-65
2023/07/07 10:45:45;;;;;;;7.75;3.50;;;;;;;22.79;47.01;101835.75;5114286;28;20041;-65
2023/07/07 10:48:14;;;;;;;10.98;4.97;;;;;;;22.80;46.48;101832.66;5111826;28;20388;-64
2023/07/07 10:51:06;;;;;;;37.60;23.98;;;;;;;22.67;46.97;101833.59;5079609;28;20062;-65
2023/07/07 10:53:49;;;;;;;22.38;13.75;;;;;;;22.62;46.55;101836.53;5096215;28;20047;-64
2023/07/07 10:56:22;;;;;;;9.05;5.15;;;;;;;22.57;45.42;101826.41;5112121;28;20048;-66
2023/07/07 10:59:30;;;;;;;11.93;6.57;;;;;;;22.56;45.85;101830.31;5091280;28;20036;-66
2023/07/07 11:02:11;;;;;;;17.10;10.23;;;;;;;22.61;45.20;101826.56;5080085;28;20472;-65
2023/07/07 11:04:49;;;;;;;16.15;10.25;;;;;;;22.79;44.71;101819.88;5096985;28;20113;-64
2023/07/07 11:07:47;;;;;;;16.63;7.85;;;;;;;22.93;44.85;101820.53;5111835;28;20043;-64
2023/07/07 11:10:36;;;;;;;15.10;8.18;;;;;;;22.88;43.94;101814.34;5092803;28;20044;-64
2023/07/07 11:13:04;;;;;;;11.32;5.78;;;;;;;22.84;44.08;101816.94;5100576;28;20040;-65
2023/07/07 11:15:51;;;;;;;9.63;4.00;;;;;;;22.87;44.67;101819.03;5114206;28;20049;-65
2023/07/07 11:18:22;;;;;;;9.75;3.90;;;;;;;23.00;44.06;101813.72;5108520;28;20088;-64
2023/07/07 11:21:19;;;;;;;7.18;3.20;;;;;;;23.03;44.02;101821.38;5112984;28;20495;-65
2023/07/07 11:24:02;;;;;;;8.00;3.92;;;;;;;23.08;43.40;101812.88;5088487;28;20403;-66
2023/07/07 11:26:46;;;;;;;10.32;5.15;;;;;;;23.09;42.86;101811.72;5115141;28;20051;-65
2023/07/07 11:29:36;;;;;;;10.13;4.30;;;;;;;23.05;42.92;101808.78;5095714;28;20055;-65
2023/07/07 11:32:35;;;;;;;12.38;4.38;;;;;;;23.06;41.72;101806.81;5112959;28;20123;-64
2023/07/07 11:35:12;;;;;;;8.00;4.45;;;;;;;23.10;41.48;101807.78;5102825;28;20063;-65
2023/07/07 11:38:15;;;;;;;8.88;4.30;;;;;;;23.11;41.02;101803.84;5095086;28;20049;-65
2023/07/07 11:41:11;;;;;;;8.50;3.80;;;;;;;23.17;39.41;101803.38;5093917;28;20054;-65
2023/07/07 11:44:03;;;;;;;8.48;4.18;;;;;;;23.25;39.42;101801.69;5075277;28;20059;-65